This is the latest recevied weather packets stored in our database for station/object WX8ASH-13. If no packets are shown the sender has not sent any weather packets the latest 10 day(s).
| Time | Temp. | Humidity | Pressure | Rain* | Wind** | Luminosity | Snow |
|---|---|---|---|---|---|---|---|
| 1777761040 | 5.56° C | 79% | 1018.2 hPa | 0 mm | - | - | - |
| 1777760742 | 5.56° C | 79% | 1018.2 hPa | 0 mm | - | - | - |
| 1777760441 | 5.56° C | 79% | 1018.2 hPa | 0 mm | - | - | - |
| 1777760140 | 5.56° C | 79% | 1018.2 hPa | 0 mm | - | - | - |
| 1777759839 | 6.11° C | 77% | 1018.2 hPa | 0 mm | - | - | - |
| 1777759540 | 6.11° C | 77% | 1018.2 hPa | 0 mm | - | - | - |
| 1777759240 | 6.11° C | 78% | 1018.2 hPa | 0 mm | - | - | - |
| 1777758939 | 6.11° C | 77% | 1018.1 hPa | 0 mm | - | - | - |
| 1777758639 | 6.11° C | 77% | 1018.1 hPa | 0 mm | - | - | - |
| 1777758339 | 6.11° C | 76% | 1017.9 hPa | 0 mm | - | - | - |
| 1777758039 | 6.11° C | 78% | 1017.9 hPa | 0 mm | - | - | - |
| 1777757738 | 6.11° C | 79% | 1017.9 hPa | 0 mm | - | - | - |
| 1777757438 | 5.56° C | 79% | 1018.1 hPa | 0 mm | - | - | - |
| 1777757138 | 0° C | 79% | 1017.9 hPa | 0 mm | - | - | - |
| 1777722342 | 1.67° C | 98% | 1017.4 hPa | 0 mm | - | - | - |
| 1777722043 | 1.67° C | 98% | 1017.3 hPa | 0 mm | - | - | - |
| 1777721746 | 1.67° C | 98% | 1017.4 hPa | 0 mm | - | - | - |
| 1777721442 | 1.67° C | 98% | 1017.3 hPa | 0 mm | - | - | - |
| 1777721146 | 1.67° C | 98% | 1017.2 hPa | 0 mm | - | - | - |
| 1777720842 | 1.11° C | 98% | 1017.3 hPa | 0 mm | - | - | - |
| 1777720541 | 1.11° C | 98% | 1017.2 hPa | 0 mm | - | - | - |
| 1777720246 | 1.11° C | 98% | 1017.2 hPa | 0 mm | - | - | - |
| 1777719941 | 1.11° C | 98% | 1017.2 hPa | 0 mm | - | - | - |
| 1777719642 | 1.11° C | 98% | 1017.1 hPa | 0 mm | - | - | - |
| 1777719342 | 1.11° C | 98% | 1017.1 hPa | 0 mm | - | - | - |
* Rain latest hour (hover to see other rain measurements)
** Current wind speed in m/s (hover to see current wind gust speed)